Weather at Deutsches Herzzentrum München Heliport

Public forecast

Using degrees Celsius for public forecast. Weather courtesy of forecast.io.

Closest aviation weather report (METAR) to Deutsches Herzzentrum München Heliport

Report is more than 6 hours old.

Closest report is Oberpfaffenhofen Airport, 11.5 nm (21.2 km) WSW. Retrieved 2022/09/17 18:50 UTC (11 days ago):

EDMO 171850Z AUTO 23009KT 9999 // FEW027/// BKN047/// 07/06 Q1016

Closest aviation forecast (TAF) to Deutsches Herzzentrum München Heliport

Forecast is more than 12 hours old.

Closest forecast is Munich Airport, 15.4 nm (28.4 km) NE. Retrieved 2022/09/17 18:29 UTC (11 days ago):

TAF EDDM 171700Z 1718/1824 26010KT 9999 SCT025 PROB40 TEMPO 1718/1722 30015G25KT SHRA BKN020CB PROB30 TEMPO 1801/1808 BKN012 BECMG 1805/1808 26015G25KT PROB30 TEMPO 1805/1808 SHRA BKN012TCU PROB40 TEMPO 1809/1814 29020G30KT BECMG 1814/1816 26010KT TEMPO 1821/1824 29015G25KT RA